sensor_id;sensor_type;location;lat;lon;timestamp;temperature;humidity
54264;DHT22;40178;53.042;6.406;2023-10-08T00:02:04;13.50;99.90
54264;DHT22;40178;53.042;6.406;2023-10-08T00:04:32;13.40;99.90
54264;DHT22;40178;53.042;6.406;2023-10-08T00:07:06;13.50;99.90
54264;DHT22;40178;53.042;6.406;2023-10-08T00:09:34;13.50;99.90
54264;DHT22;40178;53.042;6.406;2023-10-08T00:12:05;13.50;99.90
54264;DHT22;40178;53.042;6.406;2023-10-08T00:14:31;13.50;99.90
54264;DHT22;40178;53.042;6.406;2023-10-08T00:17:09;13.60;99.90
54264;DHT22;40178;53.042;6.406;2023-10-08T00:19:36;13.50;99.90
54264;DHT22;40178;53.042;6.406;2023-10-08T00:22:03;13.50;99.90
54264;DHT22;40178;53.042;6.406;2023-10-08T00:24:32;13.40;99.90
54264;DHT22;40178;53.042;6.406;2023-10-08T00:26:59;13.40;99.90
54264;DHT22;40178;53.042;6.406;2023-10-08T00:29:26;13.30;99.90
54264;DHT22;40178;53.042;6.406;2023-10-08T00:31:52;13.40;99.90
54264;DHT22;40178;53.042;6.406;2023-10-08T00:34:18;13.30;99.90
54264;DHT22;40178;53.042;6.406;2023-10-08T00:36:46;13.30;99.90
54264;DHT22;40178;53.042;6.406;2023-10-08T00:39:13;13.40;99.90
54264;DHT22;40178;53.042;6.406;2023-10-08T00:41:44;13.30;99.90
54264;DHT22;40178;53.042;6.406;2023-10-08T00:44:12;13.30;99.90
54264;DHT22;40178;53.042;6.406;2023-10-08T00:46:44;13.30;99.90
54264;DHT22;40178;53.042;6.406;2023-10-08T00:49:19;13.20;99.90
54264;DHT22;40178;53.042;6.406;2023-10-08T00:52:04;13.30;99.90
54264;DHT22;40178;53.042;6.406;2023-10-08T00:54:51;13.20;99.90
54264;DHT22;40178;53.042;6.406;2023-10-08T00:57:19;13.10;99.90
54264;DHT22;40178;53.042;6.406;2023-10-08T00:59:48;13.10;99.90
54264;DHT22;40178;53.042;6.406;2023-10-08T01:02:22;13.10;99.90
54264;DHT22;40178;53.042;6.406;2023-10-08T01:04:52;13.00;99.90
54264;DHT22;40178;53.042;6.406;2023-10-08T01:07:20;13.00;99.90
54264;DHT22;40178;53.042;6.406;2023-10-08T01:09:46;13.00;99.90
54264;DHT22;40178;53.042;6.406;2023-10-08T01:12:25;13.10;99.90
54264;DHT22;40178;53.042;6.406;2023-10-08T01:14:50;13.10;99.90
54264;DHT22;40178;53.042;6.406;2023-10-08T01:17:22;13.10;99.90
54264;DHT22;40178;53.042;6.406;2023-10-08T01:19:53;13.10;99.90
54264;DHT22;40178;53.042;6.406;2023-10-08T01:22:50;13.00;99.90
54264;DHT22;40178;53.042;6.406;2023-10-08T01:25:16;13.10;99.90
54264;DHT22;40178;53.042;6.406;2023-10-08T01:27:49;13.20;99.90
54264;DHT22;40178;53.042;6.406;2023-10-08T01:30:15;12.90;99.90
54264;DHT22;40178;53.042;6.406;2023-10-08T01:32:46;13.00;99.90
54264;DHT22;40178;53.042;6.406;2023-10-08T01:35:12;13.00;99.90
54264;DHT22;40178;53.042;6.406;2023-10-08T01:37:49;13.00;99.90
54264;DHT22;40178;53.042;6.406;2023-10-08T01:40:16;12.90;99.90
54264;DHT22;40178;53.042;6.406;2023-10-08T01:42:42;13.00;99.90
54264;DHT22;40178;53.042;6.406;2023-10-08T01:45:08;13.00;99.90
54264;DHT22;40178;53.042;6.406;2023-10-08T01:47:36;13.00;99.90
54264;DHT22;40178;53.042;6.406;2023-10-08T01:50:02;13.00;99.90
54264;DHT22;40178;53.042;6.406;2023-10-08T01:52:34;12.90;99.90
54264;DHT22;40178;53.042;6.406;2023-10-08T01:55:00;12.90;99.90
54264;DHT22;40178;53.042;6.406;2023-10-08T01:57:25;12.90;99.90
54264;DHT22;40178;53.042;6.406;2023-10-08T01:59:51;13.00;99.90
54264;DHT22;40178;53.042;6.406;2023-10-08T02:02:17;13.00;99.90
54264;DHT22;40178;53.042;6.406;2023-10-08T02:04:42;13.00;99.90
54264;DHT22;40178;53.042;6.406;2023-10-08T02:07:09;13.00;99.90
54264;DHT22;40178;53.042;6.406;2023-10-08T02:09:39;13.00;99.90
54264;DHT22;40178;53.042;6.406;2023-10-08T02:12:04;13.10;99.90
54264;DHT22;40178;53.042;6.406;2023-10-08T02:14:30;13.10;99.90
54264;DHT22;40178;53.042;6.406;2023-10-08T02:16:58;13.10;99.90
54264;DHT22;40178;53.042;6.406;2023-10-08T02:19:28;13.00;99.90
54264;DHT22;40178;53.042;6.406;2023-10-08T02:21:56;13.00;99.90
54264;DHT22;40178;53.042;6.406;2023-10-08T02:24:22;13.00;99.90
54264;DHT22;40178;53.042;6.406;2023-10-08T02:26:51;13.00;99.90
54264;DHT22;40178;53.042;6.406;2023-10-08T02:29:16;13.00;99.90
54264;DHT22;40178;53.042;6.406;2023-10-08T02:31:42;13.10;99.90
54264;DHT22;40178;53.042;6.406;2023-10-08T02:34:09;13.10;99.90
54264;DHT22;40178;53.042;6.406;2023-10-08T02:36:39;13.00;99.90
54264;DHT22;40178;53.042;6.406;2023-10-08T02:39:08;13.00;99.90
54264;DHT22;40178;53.042;6.406;2023-10-08T02:41:40;13.00;99.90
54264;DHT22;40178;53.042;6.406;2023-10-08T02:44:12;13.10;99.90
54264;DHT22;40178;53.042;6.406;2023-10-08T02:46:45;13.00;99.90
54264;DHT22;40178;53.042;6.406;2023-10-08T02:49:13;13.00;99.90
54264;DHT22;40178;53.042;6.406;2023-10-08T02:51:42;12.90;99.90
54264;DHT22;40178;53.042;6.406;2023-10-08T02:54:11;12.90;99.90
54264;DHT22;40178;53.042;6.406;2023-10-08T02:56:52;13.00;99.90
54264;DHT22;40178;53.042;6.406;2023-10-08T02:59:23;12.90;99.90
54264;DHT22;40178;53.042;6.406;2023-10-08T03:01:50;13.00;99.90
54264;DHT22;40178;53.042;6.406;2023-10-08T03:04:17;13.00;99.90
54264;DHT22;40178;53.042;6.406;2023-10-08T03:06:48;12.90;99.90
54264;DHT22;40178;53.042;6.406;2023-10-08T03:09:17;13.00;99.90
54264;DHT22;40178;53.042;6.406;2023-10-08T03:11:57;12.90;99.90
54264;DHT22;40178;53.042;6.406;2023-10-08T03:14:24;12.80;99.90
54264;DHT22;40178;53.042;6.406;2023-10-08T03:16:53;12.90;99.90
54264;DHT22;40178;53.042;6.406;2023-10-08T03:19:21;12.90;99.90
54264;DHT22;40178;53.042;6.406;2023-10-08T03:21:48;12.90;99.90
54264;DHT22;40178;53.042;6.406;2023-10-08T03:24:19;12.90;99.90
54264;DHT22;40178;53.042;6.406;2023-10-08T03:27:00;12.90;99.90
54264;DHT22;40178;53.042;6.406;2023-10-08T03:29:34;12.80;99.90
54264;DHT22;40178;53.042;6.406;2023-10-08T03:32:06;12.90;99.90
54264;DHT22;40178;53.042;6.406;2023-10-08T03:34:32;12.90;99.90
54264;DHT22;40178;53.042;6.406;2023-10-08T03:37:00;12.90;99.90
54264;DHT22;40178;53.042;6.406;2023-10-08T03:39:31;12.90;99.90
54264;DHT22;40178;53.042;6.406;2023-10-08T03:42:23;12.90;99.90
54264;DHT22;40178;53.042;6.406;2023-10-08T03:44:52;12.90;99.90
54264;DHT22;40178;53.042;6.406;2023-10-08T03:47:19;12.90;99.90
54264;DHT22;40178;53.042;6.406;2023-10-08T03:49:50;12.70;99.90
54264;DHT22;40178;53.042;6.406;2023-10-08T03:52:20;12.70;99.90
54264;DHT22;40178;53.042;6.406;2023-10-08T03:54:51;12.80;99.90
54264;DHT22;40178;53.042;6.406;2023-10-08T03:57:39;12.80;99.90
54264;DHT22;40178;53.042;6.406;2023-10-08T04:00:11;12.70;99.90
54264;DHT22;40178;53.042;6.406;2023-10-08T04:02:54;12.60;99.90
54264;DHT22;40178;53.042;6.406;2023-10-08T04:05:24;12.70;99.90
54264;DHT22;40178;53.042;6.406;2023-10-08T04:07:58;12.70;99.90
54264;DHT22;40178;53.042;6.406;2023-10-08T04:10:23;12.60;99.90
54264;DHT22;40178;53.042;6.406;2023-10-08T04:13:04;12.60;99.90
54264;DHT22;40178;53.042;6.406;2023-10-08T04:15:34;12.60;99.90
54264;DHT22;40178;53.042;6.406;2023-10-08T04:18:00;12.70;99.90
54264;DHT22;40178;53.042;6.406;2023-10-08T04:20:28;12.70;99.90
54264;DHT22;40178;53.042;6.406;2023-10-08T04:23:13;12.70;99.90
54264;DHT22;40178;53.042;6.406;2023-10-08T04:25:46;12.70;99.90
54264;DHT22;40178;53.042;6.406;2023-10-08T04:28:12;12.70;99.90
54264;DHT22;40178;53.042;6.406;2023-10-08T04:30:42;12.60;99.90
54264;DHT22;40178;53.042;6.406;2023-10-08T04:33:10;12.70;99.90
54264;DHT22;40178;53.042;6.406;2023-10-08T04:35:41;12.70;99.90
54264;DHT22;40178;53.042;6.406;2023-10-08T04:38:20;12.60;99.90
54264;DHT22;40178;53.042;6.406;2023-10-08T04:40:52;12.70;99.90
54264;DHT22;40178;53.042;6.406;2023-10-08T04:43:19;12.70;99.90
54264;DHT22;40178;53.042;6.406;2023-10-08T04:45:54;12.60;99.90
54264;DHT22;40178;53.042;6.406;2023-10-08T04:48:20;12.70;99.90
54264;DHT22;40178;53.042;6.406;2023-10-08T04:50:49;12.70;99.90
54264;DHT22;40178;53.042;6.406;2023-10-08T04:53:28;12.70;99.90
54264;DHT22;40178;53.042;6.406;2023-10-08T04:56:02;12.70;99.90
54264;DHT22;40178;53.042;6.406;2023-10-08T04:58:33;12.70;99.90
54264;DHT22;40178;53.042;6.406;2023-10-08T05:01:02;12.70;99.90
54264;DHT22;40178;53.042;6.406;2023-10-08T05:03:46;12.70;99.90
54264;DHT22;40178;53.042;6.406;2023-10-08T05:06:29;12.60;99.90
54264;DHT22;40178;53.042;6.406;2023-10-08T05:09:02;12.70;99.90
54264;DHT22;40178;53.042;6.406;2023-10-08T05:11:37;12.70;99.90
54264;DHT22;40178;53.042;6.406;2023-10-08T05:14:13;12.70;99.90
54264;DHT22;40178;53.042;6.406;2023-10-08T05:16:57;12.80;99.90
54264;DHT22;40178;53.042;6.406;2023-10-08T05:19:41;12.60;99.90
54264;DHT22;40178;53.042;6.406;2023-10-08T05:22:14;12.70;99.90
54264;DHT22;40178;53.042;6.406;2023-10-08T05:24:45;12.70;99.90
54264;DHT22;40178;53.042;6.406;2023-10-08T05:27:36;12.60;99.90
54264;DHT22;40178;53.042;6.406;2023-10-08T05:30:15;12.70;99.90
54264;DHT22;40178;53.042;6.406;2023-10-08T05:32:42;12.70;99.90
54264;DHT22;40178;53.042;6.406;2023-10-08T05:35:32;12.70;99.90
54264;DHT22;40178;53.042;6.406;2023-10-08T05:38:20;12.70;99.90
54264;DHT22;40178;53.042;6.406;2023-10-08T05:41:09;12.60;99.90
54264;DHT22;40178;53.042;6.406;2023-10-08T05:44:00;12.60;99.90
54264;DHT22;40178;53.042;6.406;2023-10-08T05:46:44;12.60;99.90
54264;DHT22;40178;53.042;6.406;2023-10-08T05:49:19;12.60;99.90
54264;DHT22;40178;53.042;6.406;2023-10-08T05:51:57;12.60;99.90
54264;DHT22;40178;53.042;6.406;2023-10-08T05:54:29;12.50;99.90
54264;DHT22;40178;53.042;6.406;2023-10-08T05:59:38;12.60;99.90
54264;DHT22;40178;53.042;6.406;2023-10-08T06:02:21;12.70;99.90
54264;DHT22;40178;53.042;6.406;2023-10-08T06:05:09;12.60;99.90
54264;DHT22;40178;53.042;6.406;2023-10-08T06:10:26;12.70;99.90
54264;DHT22;40178;53.042;6.406;2023-10-08T06:12:56;12.60;99.90
54264;DHT22;40178;53.042;6.406;2023-10-08T06:15:36;12.70;99.90
54264;DHT22;40178;53.042;6.406;2023-10-08T06:18:17;12.70;99.90
54264;DHT22;40178;53.042;6.406;2023-10-08T06:20:44;12.70;99.90
54264;DHT22;40178;53.042;6.406;2023-10-08T06:23:16;12.70;99.90
54264;DHT22;40178;53.042;6.406;2023-10-08T06:25:44;12.80;99.90
54264;DHT22;40178;53.042;6.406;2023-10-08T06:28:19;12.80;99.90
54264;DHT22;40178;53.042;6.406;2023-10-08T06:30:46;12.80;99.90
54264;DHT22;40178;53.042;6.406;2023-10-08T06:33:12;12.80;99.90
54264;DHT22;40178;53.042;6.406;2023-10-08T06:35:38;12.90;99.90
54264;DHT22;40178;53.042;6.406;2023-10-08T06:38:10;12.90;99.90
54264;DHT22;40178;53.042;6.406;2023-10-08T06:40:36;12.90;99.90
54264;DHT22;40178;53.042;6.406;2023-10-08T06:43:03;12.90;99.90
54264;DHT22;40178;53.042;6.406;2023-10-08T06:45:44;13.00;99.90
54264;DHT22;40178;53.042;6.406;2023-10-08T06:48:10;13.00;99.90
54264;DHT22;40178;53.042;6.406;2023-10-08T06:50:47;13.00;99.90
54264;DHT22;40178;53.042;6.406;2023-10-08T06:53:13;13.00;99.90
54264;DHT22;40178;53.042;6.406;2023-10-08T06:55:40;13.10;99.90
54264;DHT22;40178;53.042;6.406;2023-10-08T06:58:07;13.00;99.90
54264;DHT22;40178;53.042;6.406;2023-10-08T07:00:37;13.10;99.90
54264;DHT22;40178;53.042;6.406;2023-10-08T07:03:24;13.10;99.90
54264;DHT22;40178;53.042;6.406;2023-10-08T07:05:51;13.00;99.90
54264;DHT22;40178;53.042;6.406;2023-10-08T07:08:27;13.10;99.90
54264;DHT22;40178;53.042;6.406;2023-10-08T07:10:54;13.10;99.90
54264;DHT22;40178;53.042;6.406;2023-10-08T07:13:22;13.20;99.90
54264;DHT22;40178;53.042;6.406;2023-10-08T07:15:55;13.30;99.90
54264;DHT22;40178;53.042;6.406;2023-10-08T07:18:21;13.20;99.90
54264;DHT22;40178;53.042;6.406;2023-10-08T07:20:51;13.30;99.90
54264;DHT22;40178;53.042;6.406;2023-10-08T07:23:23;13.40;99.90
54264;DHT22;40178;53.042;6.406;2023-10-08T07:26:02;13.30;99.90
54264;DHT22;40178;53.042;6.406;2023-10-08T07:28:43;13.30;99.90
54264;DHT22;40178;53.042;6.406;2023-10-08T07:31:21;13.40;99.90
54264;DHT22;40178;53.042;6.406;2023-10-08T07:33:49;13.40;99.90
54264;DHT22;40178;53.042;6.406;2023-10-08T07:36:50;13.40;99.90
54264;DHT22;40178;53.042;6.406;2023-10-08T07:39:20;13.50;99.90
54264;DHT22;40178;53.042;6.406;2023-10-08T07:42:03;13.50;99.90
54264;DHT22;40178;53.042;6.406;2023-10-08T07:44:33;13.40;99.90
54264;DHT22;40178;53.042;6.406;2023-10-08T07:47:01;13.40;99.90
54264;DHT22;40178;53.042;6.406;2023-10-08T07:49:31;13.30;99.90
54264;DHT22;40178;53.042;6.406;2023-10-08T07:51:58;13.50;99.90
54264;DHT22;40178;53.042;6.406;2023-10-08T07:54:25;13.50;99.90
54264;DHT22;40178;53.042;6.406;2023-10-08T07:56:56;13.60;99.90
54264;DHT22;40178;53.042;6.406;2023-10-08T07:59:35;13.60;99.90
54264;DHT22;40178;53.042;6.406;2023-10-08T08:02:05;13.60;99.90
54264;DHT22;40178;53.042;6.406;2023-10-08T08:04:42;13.60;99.90
54264;DHT22;40178;53.042;6.406;2023-10-08T08:07:11;13.50;99.90
54264;DHT22;40178;53.042;6.406;2023-10-08T08:09:43;13.50;99.90
54264;DHT22;40178;53.042;6.406;2023-10-08T08:12:25;13.70;99.90
54264;DHT22;40178;53.042;6.406;2023-10-08T08:14:52;13.50;99.90
54264;DHT22;40178;53.042;6.406;2023-10-08T08:17:18;13.60;99.90
54264;DHT22;40178;53.042;6.406;2023-10-08T08:19:48;13.50;99.90
54264;DHT22;40178;53.042;6.406;2023-10-08T08:22:16;13.50;99.90
54264;DHT22;40178;53.042;6.406;2023-10-08T08:24:49;13.60;99.90
54264;DHT22;40178;53.042;6.406;2023-10-08T08:27:19;13.60;99.90
54264;DHT22;40178;53.042;6.406;2023-10-08T08:29:53;13.60;99.90
54264;DHT22;40178;53.042;6.406;2023-10-08T08:32:22;13.70;99.90
54264;DHT22;40178;53.042;6.406;2023-10-08T08:34:48;13.90;99.90
54264;DHT22;40178;53.042;6.406;2023-10-08T08:37:16;13.90;99.90
54264;DHT22;40178;53.042;6.406;2023-10-08T08:39:42;14.00;99.90
54264;DHT22;40178;53.042;6.406;2023-10-08T08:42:08;14.00;99.90
54264;DHT22;40178;53.042;6.406;2023-10-08T08:44:36;14.10;99.90
54264;DHT22;40178;53.042;6.406;2023-10-08T08:47:12;14.10;99.90
54264;DHT22;40178;53.042;6.406;2023-10-08T08:49:43;14.20;99.90
54264;DHT22;40178;53.042;6.406;2023-10-08T08:52:08;14.20;99.90
54264;DHT22;40178;53.042;6.406;2023-10-08T08:54:34;14.20;99.90
54264;DHT22;40178;53.042;6.406;2023-10-08T08:57:03;14.30;99.90
54264;DHT22;40178;53.042;6.406;2023-10-08T08:59:30;14.50;99.90
54264;DHT22;40178;53.042;6.406;2023-10-08T09:01:57;14.40;99.90
54264;DHT22;40178;53.042;6.406;2023-10-08T09:04:32;14.50;99.90
54264;DHT22;40178;53.042;6.406;2023-10-08T09:07:01;14.50;99.90
54264;DHT22;40178;53.042;6.406;2023-10-08T09:09:36;14.60;99.90
54264;DHT22;40178;53.042;6.406;2023-10-08T09:12:10;14.40;99.90
54264;DHT22;40178;53.042;6.406;2023-10-08T09:14:36;14.40;99.90
54264;DHT22;40178;53.042;6.406;2023-10-08T09:17:04;14.50;99.90
54264;DHT22;40178;53.042;6.406;2023-10-08T09:19:35;14.40;99.90
54264;DHT22;40178;53.042;6.406;2023-10-08T09:22:09;14.50;99.90
54264;DHT22;40178;53.042;6.406;2023-10-08T09:24:39;14.60;99.90
54264;DHT22;40178;53.042;6.406;2023-10-08T09:27:06;14.70;99.90
54264;DHT22;40178;53.042;6.406;2023-10-08T09:29:35;14.80;99.90
54264;DHT22;40178;53.042;6.406;2023-10-08T09:32:05;14.80;99.90
54264;DHT22;40178;53.042;6.406;2023-10-08T09:34:32;14.90;98.30
54264;DHT22;40178;53.042;6.406;2023-10-08T09:36:59;15.10;89.20
54264;DHT22;40178;53.042;6.406;2023-10-08T09:39:29;15.30;91.80
54264;DHT22;40178;53.042;6.406;2023-10-08T09:42:03;15.30;64.20
54264;DHT22;40178;53.042;6.406;2023-10-08T09:44:30;15.40;89.40
54264;DHT22;40178;53.042;6.406;2023-10-08T09:47:09;15.60;99.90
54264;DHT22;40178;53.042;6.406;2023-10-08T09:49:56;15.70;85.90
54264;DHT22;40178;53.042;6.406;2023-10-08T09:52:29;15.80;92.80
54264;DHT22;40178;53.042;6.406;2023-10-08T09:55:17;15.90;94.10
54264;DHT22;40178;53.042;6.406;2023-10-08T09:57:43;15.90;91.30
54264;DHT22;40178;53.042;6.406;2023-10-08T10:00:08;15.90;98.80
54264;DHT22;40178;53.042;6.406;2023-10-08T10:02:44;15.90;96.10
54264;DHT22;40178;53.042;6.406;2023-10-08T10:05:11;15.90;94.00
54264;DHT22;40178;53.042;6.406;2023-10-08T10:07:37;15.90;93.20
54264;DHT22;40178;53.042;6.406;2023-10-08T10:10:25;16.00;95.40
54264;DHT22;40178;53.042;6.406;2023-10-08T10:12:51;16.00;49.30
54264;DHT22;40178;53.042;6.406;2023-10-08T10:15:20;16.20;89.70
54264;DHT22;40178;53.042;6.406;2023-10-08T10:17:50;16.30;91.80
54264;DHT22;40178;53.042;6.406;2023-10-08T10:20:16;16.40;91.00
54264;DHT22;40178;53.042;6.406;2023-10-08T10:22:42;16.40;59.40
54264;DHT22;40178;53.042;6.406;2023-10-08T10:25:10;16.40;48.50
54264;DHT22;40178;53.042;6.406;2023-10-08T10:30:21;16.30;52.10
54264;DHT22;40178;53.042;6.406;2023-10-08T10:32:51;16.30;49.50
54264;DHT22;40178;53.042;6.406;2023-10-08T10:35:17;16.50;82.20
54264;DHT22;40178;53.042;6.406;2023-10-08T10:37:43;16.70;81.70
54264;DHT22;40178;53.042;6.406;2023-10-08T10:40:20;16.70;74.40
54264;DHT22;40178;53.042;6.406;2023-10-08T10:42:58;16.80;73.30
54264;DHT22;40178;53.042;6.406;2023-10-08T10:45:28;16.70;29.70
54264;DHT22;40178;53.042;6.406;2023-10-08T10:48:08;16.90;58.00
54264;DHT22;40178;53.042;6.406;2023-10-08T10:50:49;16.90;22.10
54264;DHT22;40178;53.042;6.406;2023-10-08T10:53:31;16.90;51.00
54264;DHT22;40178;53.042;6.406;2023-10-08T10:55:59;17.00;47.20
54264;DHT22;40178;53.042;6.406;2023-10-08T10:58:35;17.00;1.00
54264;DHT22;40178;53.042;6.406;2023-10-08T11:01:06;17.00;1.00
54264;DHT22;40178;53.042;6.406;2023-10-08T11:03:52;16.80;1.00
54264;DHT22;40178;53.042;6.406;2023-10-08T11:06:22;16.90;1.00
54264;DHT22;40178;53.042;6.406;2023-10-08T11:08:50;16.90;1.00
54264;DHT22;40178;53.042;6.406;2023-10-08T11:11:28;16.90;1.00
54264;DHT22;40178;53.042;6.406;2023-10-08T11:13:59;16.90;1.00
54264;DHT22;40178;53.042;6.406;2023-10-08T11:16:26;17.00;21.10
54264;DHT22;40178;53.042;6.406;2023-10-08T11:18:53;16.90;1.00
54264;DHT22;40178;53.042;6.406;2023-10-08T11:21:23;16.90;1.00
54264;DHT22;40178;53.042;6.406;2023-10-08T11:23:51;17.00;1.00
54264;DHT22;40178;53.042;6.406;2023-10-08T11:26:25;17.10;20.30
54264;DHT22;40178;53.042;6.406;2023-10-08T11:29:01;17.10;35.00
54264;DHT22;40178;53.042;6.406;2023-10-08T11:31:29;17.20;47.00
54264;DHT22;40178;53.042;6.406;2023-10-08T11:34:02;17.10;25.60
54264;DHT22;40178;53.042;6.406;2023-10-08T11:36:35;17.20;51.30
54264;DHT22;40178;53.042;6.406;2023-10-08T11:39:14;17.10;6.20
54264;DHT22;40178;53.042;6.406;2023-10-08T11:42:15;17.00;23.30
54264;DHT22;40178;53.042;6.406;2023-10-08T11:44:59;17.20;14.00
54264;DHT22;40178;53.042;6.406;2023-10-08T11:47:34;17.30;25.20
54264;DHT22;40178;53.042;6.406;2023-10-08T11:50:04;17.20;1.00
54264;DHT22;40178;53.042;6.406;2023-10-08T11:52:39;17.20;1.00
54264;DHT22;40178;53.042;6.406;2023-10-08T11:55:11;17.30;31.00
54264;DHT22;40178;53.042;6.406;2023-10-08T11:57:45;17.40;13.20
54264;DHT22;40178;53.042;6.406;2023-10-08T12:00:14;17.60;47.80
54264;DHT22;40178;53.042;6.406;2023-10-08T12:02:51;17.70;6.30
54264;DHT22;40178;53.042;6.406;2023-10-08T12:05:20;17.50;1.00
54264;DHT22;40178;53.042;6.406;2023-10-08T12:07:52;17.60;25.30
54264;DHT22;40178;53.042;6.406;2023-10-08T12:10:21;17.70;31.00
54264;DHT22;40178;53.042;6.406;2023-10-08T12:12:53;17.60;45.40
54264;DHT22;40178;53.042;6.406;2023-10-08T12:15:23;17.60;39.10
54264;DHT22;40178;53.042;6.406;2023-10-08T12:17:55;17.50;38.90
54264;DHT22;40178;53.042;6.406;2023-10-08T12:20:39;17.30;16.90
54264;DHT22;40178;53.042;6.406;2023-10-08T12:23:09;17.20;3.10
54264;DHT22;40178;53.042;6.406;2023-10-08T12:25:39;17.30;41.30
54264;DHT22;40178;53.042;6.406;2023-10-08T12:28:05;17.40;43.60
54264;DHT22;40178;53.042;6.406;2023-10-08T12:30:31;17.30;33.60
54264;DHT22;40178;53.042;6.406;2023-10-08T12:33:00;17.40;39.10
54264;DHT22;40178;53.042;6.406;2023-10-08T12:35:26;17.50;52.30
54264;DHT22;40178;53.042;6.406;2023-10-08T12:37:54;17.40;47.10
54264;DHT22;40178;53.042;6.406;2023-10-08T12:40:20;17.40;22.40
54264;DHT22;40178;53.042;6.406;2023-10-08T12:42:52;17.30;29.00
54264;DHT22;40178;53.042;6.406;2023-10-08T12:45:18;17.30;25.00
54264;DHT22;40178;53.042;6.406;2023-10-08T12:47:52;17.20;9.60
54264;DHT22;40178;53.042;6.406;2023-10-08T12:50:19;17.20;30.70
54264;DHT22;40178;53.042;6.406;2023-10-08T12:53:04;17.20;29.60
54264;DHT22;40178;53.042;6.406;2023-10-08T12:55:30;17.20;37.20
54264;DHT22;40178;53.042;6.406;2023-10-08T12:57:56;17.10;10.00
54264;DHT22;40178;53.042;6.406;2023-10-08T13:00:34;17.20;25.90
54264;DHT22;40178;53.042;6.406;2023-10-08T13:02:59;17.30;2.00
54264;DHT22;40178;53.042;6.406;2023-10-08T13:05:31;17.40;24.80
54264;DHT22;40178;53.042;6.406;2023-10-08T13:07:58;17.40;36.60
54264;DHT22;40178;53.042;6.406;2023-10-08T13:10:29;17.40;12.50
54264;DHT22;40178;53.042;6.406;2023-10-08T13:12:56;17.50;4.20
54264;DHT22;40178;53.042;6.406;2023-10-08T13:15:22;17.60;1.00
54264;DHT22;40178;53.042;6.406;2023-10-08T13:17:51;17.50;1.00
54264;DHT22;40178;53.042;6.406;2023-10-08T13:20:17;17.60;24.10
54264;DHT22;40178;53.042;6.406;2023-10-08T13:22:43;17.70;16.90
54264;DHT22;40178;53.042;6.406;2023-10-08T13:25:10;17.60;1.00
54264;DHT22;40178;53.042;6.406;2023-10-08T13:27:38;17.60;6.00
54264;DHT22;40178;53.042;6.406;2023-10-08T13:30:08;17.50;1.00
54264;DHT22;40178;53.042;6.406;2023-10-08T13:32:35;17.40;6.30
54264;DHT22;40178;53.042;6.406;2023-10-08T13:35:05;17.40;11.70
54264;DHT22;40178;53.042;6.406;2023-10-08T13:37:34;17.30;5.30
54264;DHT22;40178;53.042;6.406;2023-10-08T13:40:01;17.20;1.00
54264;DHT22;40178;53.042;6.406;2023-10-08T13:42:27;17.20;7.90
54264;DHT22;40178;53.042;6.406;2023-10-08T13:44:53;17.20;1.00
54264;DHT22;40178;53.042;6.406;2023-10-08T13:47:20;17.20;20.40
54264;DHT22;40178;53.042;6.406;2023-10-08T13:49:50;17.20;26.10
54264;DHT22;40178;53.042;6.406;2023-10-08T13:52:16;17.40;28.40
54264;DHT22;40178;53.042;6.406;2023-10-08T13:54:42;17.40;26.80
54264;DHT22;40178;53.042;6.406;2023-10-08T13:57:16;17.40;12.90
54264;DHT22;40178;53.042;6.406;2023-10-08T13:59:44;17.30;1.00
54264;DHT22;40178;53.042;6.406;2023-10-08T14:02:10;17.40;16.10
54264;DHT22;40178;53.042;6.406;2023-10-08T14:04:44;17.40;1.00
54264;DHT22;40178;53.042;6.406;2023-10-08T14:07:11;17.30;1.00
54264;DHT22;40178;53.042;6.406;2023-10-08T14:09:43;17.20;7.20
54264;DHT22;40178;53.042;6.406;2023-10-08T14:12:11;17.20;19.90
54264;DHT22;40178;53.042;6.406;2023-10-08T14:14:39;17.30;21.50
54264;DHT22;40178;53.042;6.406;2023-10-08T14:17:11;17.30;19.90
54264;DHT22;40178;53.042;6.406;2023-10-08T14:19:41;17.20;15.70
54264;DHT22;40178;53.042;6.406;2023-10-08T14:22:25;17.20;1.00
54264;DHT22;40178;53.042;6.406;2023-10-08T14:24:50;17.10;13.50
54264;DHT22;40178;53.042;6.406;2023-10-08T14:27:28;17.00;1.00
54264;DHT22;40178;53.042;6.406;2023-10-08T14:29:57;16.90;1.00
54264;DHT22;40178;53.042;6.406;2023-10-08T14:32:27;16.90;17.20
54264;DHT22;40178;53.042;6.406;2023-10-08T14:34:53;16.80;20.90
54264;DHT22;40178;53.042;6.406;2023-10-08T14:37:22;16.90;14.80
54264;DHT22;40178;53.042;6.406;2023-10-08T14:40:06;16.90;29.30
54264;DHT22;40178;53.042;6.406;2023-10-08T14:42:51;16.80;1.00
54264;DHT22;40178;53.042;6.406;2023-10-08T14:45:32;16.90;22.30
54264;DHT22;40178;53.042;6.406;2023-10-08T14:48:01;16.90;31.00
54264;DHT22;40178;53.042;6.406;2023-10-08T14:50:28;16.90;43.90
54264;DHT22;40178;53.042;6.406;2023-10-08T14:52:56;16.90;51.50
54264;DHT22;40178;53.042;6.406;2023-10-08T14:55:25;16.90;51.60
54264;DHT22;40178;53.042;6.406;2023-10-08T14:57:52;16.90;58.00
54264;DHT22;40178;53.042;6.406;2023-10-08T15:00:19;16.80;57.50
54264;DHT22;40178;53.042;6.406;2023-10-08T15:02:53;16.90;61.90
54264;DHT22;40178;53.042;6.406;2023-10-08T15:05:20;16.90;64.00
54264;DHT22;40178;53.042;6.406;2023-10-08T15:07:48;16.90;63.30
54264;DHT22;40178;53.042;6.406;2023-10-08T15:10:15;17.00;66.10
54264;DHT22;40178;53.042;6.406;2023-10-08T15:12:40;16.80;57.00
54264;DHT22;40178;53.042;6.406;2023-10-08T15:15:07;16.80;58.80
54264;DHT22;40178;53.042;6.406;2023-10-08T15:17:40;16.80;53.30
54264;DHT22;40178;53.042;6.406;2023-10-08T15:20:07;16.60;54.00
54264;DHT22;40178;53.042;6.406;2023-10-08T15:22:33;16.60;36.10
54264;DHT22;40178;53.042;6.406;2023-10-08T15:25:01;16.60;53.80
54264;DHT22;40178;53.042;6.406;2023-10-08T15:27:27;16.50;55.00
54264;DHT22;40178;53.042;6.406;2023-10-08T15:29:55;16.50;48.10
54264;DHT22;40178;53.042;6.406;2023-10-08T15:32:21;16.40;38.00
54264;DHT22;40178;53.042;6.406;2023-10-08T15:34:46;16.40;39.30
54264;DHT22;40178;53.042;6.406;2023-10-08T15:37:12;16.40;51.00
54264;DHT22;40178;53.042;6.406;2023-10-08T15:39:39;16.30;39.80
54264;DHT22;40178;53.042;6.406;2023-10-08T15:42:06;16.30;53.60
54264;DHT22;40178;53.042;6.406;2023-10-08T15:44:31;16.30;54.10
54264;DHT22;40178;53.042;6.406;2023-10-08T15:46:57;16.30;55.60
54264;DHT22;40178;53.042;6.406;2023-10-08T15:49:22;16.10;46.50
54264;DHT22;40178;53.042;6.406;2023-10-08T15:51:48;16.20;53.20
54264;DHT22;40178;53.042;6.406;2023-10-08T15:54:14;16.20;58.10
54264;DHT22;40178;53.042;6.406;2023-10-08T15:56:41;16.10;56.50
54264;DHT22;40178;53.042;6.406;2023-10-08T15:59:07;16.10;64.80
54264;DHT22;40178;53.042;6.406;2023-10-08T16:01:32;16.10;61.10
54264;DHT22;40178;53.042;6.406;2023-10-08T16:03:58;16.00;62.20
54264;DHT22;40178;53.042;6.406;2023-10-08T16:06:24;15.90;56.20